sensor_id;sensor_type;location;lat;lon;timestamp;P1;durP1;ratioP1;P2;durP2;ratioP2
79124;SDS011;68527;39.470;-0.376;2024-01-07T00:01:23;1.70;;;0.80;;
79124;SDS011;68527;39.470;-0.376;2024-01-07T00:06:16;1.70;;;0.80;;
79124;SDS011;68527;39.470;-0.376;2024-01-07T00:08:42;1.90;;;0.80;;
79124;SDS011;68527;39.470;-0.376;2024-01-07T00:11:07;1.70;;;0.80;;
79124;SDS011;68527;39.470;-0.376;2024-01-07T00:13:34;2.80;;;1.00;;
79124;SDS011;68527;39.470;-0.376;2024-01-07T00:16:00;1.50;;;0.70;;
79124;SDS011;68527;39.470;-0.376;2024-01-07T00:18:26;1.20;;;0.80;;
79124;SDS011;68527;39.470;-0.376;2024-01-07T00:20:52;2.50;;;1.10;;
79124;SDS011;68527;39.470;-0.376;2024-01-07T00:23:20;1.30;;;0.70;;
79124;SDS011;68527;39.470;-0.376;2024-01-07T00:25:46;2.00;;;0.90;;
79124;SDS011;68527;39.470;-0.376;2024-01-07T00:28:12;1.20;;;0.90;;
79124;SDS011;68527;39.470;-0.376;2024-01-07T00:30:38;1.30;;;0.70;;
79124;SDS011;68527;39.470;-0.376;2024-01-07T00:33:05;1.50;;;0.90;;
79124;SDS011;68527;39.470;-0.376;2024-01-07T00:35:30;1.70;;;1.00;;
79124;SDS011;68527;39.470;-0.376;2024-01-07T00:37:56;2.20;;;1.10;;
79124;SDS011;68527;39.470;-0.376;2024-01-07T00:40:22;2.40;;;0.90;;
79124;SDS011;68527;39.470;-0.376;2024-01-07T00:42:50;1.40;;;0.80;;
79124;SDS011;68527;39.470;-0.376;2024-01-07T00:45:16;1.70;;;0.80;;
79124;SDS011;68527;39.470;-0.376;2024-01-07T00:47:42;2.80;;;0.90;;
79124;SDS011;68527;39.470;-0.376;2024-01-07T00:50:08;1.20;;;0.60;;
79124;SDS011;68527;39.470;-0.376;2024-01-07T00:52:35;1.00;;;0.60;;
79124;SDS011;68527;39.470;-0.376;2024-01-07T00:55:04;1.70;;;0.90;;
79124;SDS011;68527;39.470;-0.376;2024-01-07T00:57:31;1.80;;;0.90;;
79124;SDS011;68527;39.470;-0.376;2024-01-07T01:00:01;1.80;;;0.50;;
79124;SDS011;68527;39.470;-0.376;2024-01-07T01:02:30;1.10;;;0.70;;
79124;SDS011;68527;39.470;-0.376;2024-01-07T01:04:57;1.50;;;0.60;;
79124;SDS011;68527;39.470;-0.376;2024-01-07T01:07:23;0.70;;;0.50;;
79124;SDS011;68527;39.470;-0.376;2024-01-07T01:09:48;1.90;;;0.70;;
79124;SDS011;68527;39.470;-0.376;2024-01-07T01:12:14;1.20;;;0.50;;
79124;SDS011;68527;39.470;-0.376;2024-01-07T01:14:42;1.90;;;0.70;;
79124;SDS011;68527;39.470;-0.376;2024-01-07T01:17:07;1.30;;;0.80;;
79124;SDS011;68527;39.470;-0.376;2024-01-07T01:19:33;1.20;;;0.60;;
79124;SDS011;68527;39.470;-0.376;2024-01-07T01:21:59;2.30;;;0.60;;
79124;SDS011;68527;39.470;-0.376;2024-01-07T01:24:25;1.00;;;0.70;;
79124;SDS011;68527;39.470;-0.376;2024-01-07T01:26:50;2.40;;;0.80;;
79124;SDS011;68527;39.470;-0.376;2024-01-07T01:29:16;1.40;;;0.70;;
79124;SDS011;68527;39.470;-0.376;2024-01-07T01:31:42;3.20;;;0.80;;
79124;SDS011;68527;39.470;-0.376;2024-01-07T01:34:10;0.90;;;0.70;;
79124;SDS011;68527;39.470;-0.376;2024-01-07T01:36:35;1.00;;;0.60;;
79124;SDS011;68527;39.470;-0.376;2024-01-07T01:39:01;1.10;;;0.50;;
79124;SDS011;68527;39.470;-0.376;2024-01-07T01:41:26;1.60;;;0.90;;
79124;SDS011;68527;39.470;-0.376;2024-01-07T01:44:00;1.70;;;0.70;;
79124;SDS011;68527;39.470;-0.376;2024-01-07T01:46:26;2.40;;;0.70;;
79124;SDS011;68527;39.470;-0.376;2024-01-07T01:48:56;1.10;;;0.60;;
79124;SDS011;68527;39.470;-0.376;2024-01-07T01:51:22;1.60;;;0.60;;
79124;SDS011;68527;39.470;-0.376;2024-01-07T01:53:48;1.50;;;0.60;;
79124;SDS011;68527;39.470;-0.376;2024-01-07T01:56:17;0.70;;;0.50;;
79124;SDS011;68527;39.470;-0.376;2024-01-07T01:58:43;1.30;;;0.60;;
79124;SDS011;68527;39.470;-0.376;2024-01-07T02:01:08;1.70;;;0.80;;
79124;SDS011;68527;39.470;-0.376;2024-01-07T02:03:36;0.70;;;0.50;;
79124;SDS011;68527;39.470;-0.376;2024-01-07T02:06:02;1.10;;;0.80;;
79124;SDS011;68527;39.470;-0.376;2024-01-07T02:08:28;2.00;;;0.60;;
79124;SDS011;68527;39.470;-0.376;2024-01-07T02:10:54;1.10;;;0.80;;
79124;SDS011;68527;39.470;-0.376;2024-01-07T02:13:21;0.90;;;0.60;;
79124;SDS011;68527;39.470;-0.376;2024-01-07T02:15:47;0.80;;;0.60;;
79124;SDS011;68527;39.470;-0.376;2024-01-07T02:18:12;1.10;;;0.60;;
79124;SDS011;68527;39.470;-0.376;2024-01-07T02:20:38;0.90;;;0.50;;
79124;SDS011;68527;39.470;-0.376;2024-01-07T02:23:05;0.90;;;0.50;;
79124;SDS011;68527;39.470;-0.376;2024-01-07T02:25:37;1.20;;;0.60;;
79124;SDS011;68527;39.470;-0.376;2024-01-07T02:28:05;0.90;;;0.60;;
79124;SDS011;68527;39.470;-0.376;2024-01-07T02:30:30;1.50;;;0.60;;
79124;SDS011;68527;39.470;-0.376;2024-01-07T02:33:00;0.90;;;0.60;;
79124;SDS011;68527;39.470;-0.376;2024-01-07T02:35:28;1.00;;;0.50;;
79124;SDS011;68527;39.470;-0.376;2024-01-07T02:37:54;0.80;;;0.50;;
79124;SDS011;68527;39.470;-0.376;2024-01-07T02:40:20;2.80;;;0.70;;
79124;SDS011;68527;39.470;-0.376;2024-01-07T02:42:46;1.00;;;0.50;;
79124;SDS011;68527;39.470;-0.376;2024-01-07T02:45:12;1.00;;;0.40;;
79124;SDS011;68527;39.470;-0.376;2024-01-07T02:47:38;1.30;;;0.70;;
79124;SDS011;68527;39.470;-0.376;2024-01-07T02:50:04;0.80;;;0.50;;
79124;SDS011;68527;39.470;-0.376;2024-01-07T02:52:30;0.60;;;0.50;;
79124;SDS011;68527;39.470;-0.376;2024-01-07T02:54:57;1.00;;;0.50;;
79124;SDS011;68527;39.470;-0.376;2024-01-07T02:57:24;1.50;;;0.50;;
79124;SDS011;68527;39.470;-0.376;2024-01-07T02:59:50;0.60;;;0.40;;
79124;SDS011;68527;39.470;-0.376;2024-01-07T03:02:15;1.70;;;0.60;;
79124;SDS011;68527;39.470;-0.376;2024-01-07T03:04:43;1.10;;;0.40;;
79124;SDS011;68527;39.470;-0.376;2024-01-07T03:07:08;1.00;;;0.70;;
79124;SDS011;68527;39.470;-0.376;2024-01-07T03:09:34;0.70;;;0.50;;
79124;SDS011;68527;39.470;-0.376;2024-01-07T03:12:00;1.30;;;0.60;;
79124;SDS011;68527;39.470;-0.376;2024-01-07T03:14:27;1.20;;;0.60;;
79124;SDS011;68527;39.470;-0.376;2024-01-07T03:16:52;1.00;;;0.60;;
79124;SDS011;68527;39.470;-0.376;2024-01-07T03:19:18;0.70;;;0.40;;
79124;SDS011;68527;39.470;-0.376;2024-01-07T03:21:44;1.20;;;0.70;;
79124;SDS011;68527;39.470;-0.376;2024-01-07T03:24:11;1.00;;;0.60;;
79124;SDS011;68527;39.470;-0.376;2024-01-07T03:26:36;0.90;;;0.50;;
79124;SDS011;68527;39.470;-0.376;2024-01-07T03:29:02;0.90;;;0.40;;
79124;SDS011;68527;39.470;-0.376;2024-01-07T03:31:28;1.00;;;0.50;;
79124;SDS011;68527;39.470;-0.376;2024-01-07T03:33:56;1.90;;;0.60;;
79124;SDS011;68527;39.470;-0.376;2024-01-07T03:36:22;0.90;;;0.50;;
79124;SDS011;68527;39.470;-0.376;2024-01-07T03:38:48;1.30;;;0.50;;
79124;SDS011;68527;39.470;-0.376;2024-01-07T03:41:16;0.80;;;0.60;;
79124;SDS011;68527;39.470;-0.376;2024-01-07T03:43:46;0.70;;;0.40;;
79124;SDS011;68527;39.470;-0.376;2024-01-07T03:46:13;1.10;;;0.50;;
79124;SDS011;68527;39.470;-0.376;2024-01-07T03:48:39;1.10;;;0.60;;
79124;SDS011;68527;39.470;-0.376;2024-01-07T03:51:08;1.00;;;0.40;;
79124;SDS011;68527;39.470;-0.376;2024-01-07T03:53:34;0.80;;;0.50;;
79124;SDS011;68527;39.470;-0.376;2024-01-07T03:55:59;0.70;;;0.50;;
79124;SDS011;68527;39.470;-0.376;2024-01-07T03:58:25;1.20;;;0.60;;
79124;SDS011;68527;39.470;-0.376;2024-01-07T04:00:52;1.10;;;0.50;;
79124;SDS011;68527;39.470;-0.376;2024-01-07T04:03:17;0.60;;;0.40;;
79124;SDS011;68527;39.470;-0.376;2024-01-07T04:05:43;0.90;;;0.40;;
79124;SDS011;68527;39.470;-0.376;2024-01-07T04:08:10;0.70;;;0.40;;
79124;SDS011;68527;39.470;-0.376;2024-01-07T04:10:38;0.80;;;0.60;;
79124;SDS011;68527;39.470;-0.376;2024-01-07T04:13:04;0.70;;;0.40;;
79124;SDS011;68527;39.470;-0.376;2024-01-07T04:15:30;1.50;;;0.40;;
79124;SDS011;68527;39.470;-0.376;2024-01-07T04:17:55;1.60;;;0.60;;
79124;SDS011;68527;39.470;-0.376;2024-01-07T04:20:22;0.70;;;0.40;;
79124;SDS011;68527;39.470;-0.376;2024-01-07T04:22:49;1.60;;;0.40;;
79124;SDS011;68527;39.470;-0.376;2024-01-07T04:25:14;0.70;;;0.40;;
79124;SDS011;68527;39.470;-0.376;2024-01-07T04:27:40;0.80;;;0.40;;
79124;SDS011;68527;39.470;-0.376;2024-01-07T04:30:07;1.00;;;0.50;;
79124;SDS011;68527;39.470;-0.376;2024-01-07T04:32:33;0.90;;;0.40;;
79124;SDS011;68527;39.470;-0.376;2024-01-07T04:34:58;1.30;;;0.50;;
79124;SDS011;68527;39.470;-0.376;2024-01-07T04:37:24;0.60;;;0.50;;
79124;SDS011;68527;39.470;-0.376;2024-01-07T04:39:51;0.70;;;0.40;;
79124;SDS011;68527;39.470;-0.376;2024-01-07T04:42:17;1.40;;;0.50;;
79124;SDS011;68527;39.470;-0.376;2024-01-07T04:44:43;1.90;;;0.50;;
79124;SDS011;68527;39.470;-0.376;2024-01-07T04:49:55;0.90;;;0.40;;
79124;SDS011;68527;39.470;-0.376;2024-01-07T04:52:21;0.80;;;0.60;;
79124;SDS011;68527;39.470;-0.376;2024-01-07T04:54:51;0.40;;;0.30;;
79124;SDS011;68527;39.470;-0.376;2024-01-07T04:57:18;0.70;;;0.50;;
79124;SDS011;68527;39.470;-0.376;2024-01-07T04:59:44;0.90;;;0.50;;
79124;SDS011;68527;39.470;-0.376;2024-01-07T05:02:10;0.80;;;0.40;;
79124;SDS011;68527;39.470;-0.376;2024-01-07T05:04:38;0.90;;;0.50;;
79124;SDS011;68527;39.470;-0.376;2024-01-07T05:07:04;0.60;;;0.50;;
79124;SDS011;68527;39.470;-0.376;2024-01-07T05:09:29;2.00;;;0.70;;
79124;SDS011;68527;39.470;-0.376;2024-01-07T05:11:56;0.80;;;0.30;;
79124;SDS011;68527;39.470;-0.376;2024-01-07T05:14:23;0.80;;;0.50;;
79124;SDS011;68527;39.470;-0.376;2024-01-07T05:16:48;0.60;;;0.40;;
79124;SDS011;68527;39.470;-0.376;2024-01-07T05:19:14;2.50;;;0.50;;
79124;SDS011;68527;39.470;-0.376;2024-01-07T05:24:06;1.90;;;0.60;;
79124;SDS011;68527;39.470;-0.376;2024-01-07T05:26:39;0.70;;;0.40;;
79124;SDS011;68527;39.470;-0.376;2024-01-07T05:29:07;0.80;;;0.40;;
79124;SDS011;68527;39.470;-0.376;2024-01-07T05:31:32;0.90;;;0.50;;
79124;SDS011;68527;39.470;-0.376;2024-01-07T05:33:58;0.80;;;0.50;;
79124;SDS011;68527;39.470;-0.376;2024-01-07T05:36:24;0.70;;;0.50;;
79124;SDS011;68527;39.470;-0.376;2024-01-07T05:38:52;0.40;;;0.30;;
79124;SDS011;68527;39.470;-0.376;2024-01-07T05:41:17;1.10;;;0.40;;
79124;SDS011;68527;39.470;-0.376;2024-01-07T05:43:43;1.30;;;0.60;;
79124;SDS011;68527;39.470;-0.376;2024-01-07T05:46:08;1.30;;;0.50;;
79124;SDS011;68527;39.470;-0.376;2024-01-07T05:51:16;0.70;;;0.40;;
79124;SDS011;68527;39.470;-0.376;2024-01-07T05:53:44;1.00;;;0.40;;
79124;SDS011;68527;39.470;-0.376;2024-01-07T05:58:38;2.10;;;0.90;;
79124;SDS011;68527;39.470;-0.376;2024-01-07T06:01:03;0.70;;;0.40;;
79124;SDS011;68527;39.470;-0.376;2024-01-07T06:03:29;0.80;;;0.40;;
79124;SDS011;68527;39.470;-0.376;2024-01-07T06:05:57;0.60;;;0.40;;
79124;SDS011;68527;39.470;-0.376;2024-01-07T06:08:25;1.30;;;0.30;;
79124;SDS011;68527;39.470;-0.376;2024-01-07T06:10:51;0.70;;;0.60;;
79124;SDS011;68527;39.470;-0.376;2024-01-07T06:13:17;0.50;;;0.30;;
79124;SDS011;68527;39.470;-0.376;2024-01-07T06:15:45;0.70;;;0.50;;
79124;SDS011;68527;39.470;-0.376;2024-01-07T06:18:11;0.70;;;0.40;;
79124;SDS011;68527;39.470;-0.376;2024-01-07T06:20:37;0.90;;;0.50;;
79124;SDS011;68527;39.470;-0.376;2024-01-07T06:23:02;0.90;;;0.50;;
79124;SDS011;68527;39.470;-0.376;2024-01-07T06:25:30;0.70;;;0.40;;
79124;SDS011;68527;39.470;-0.376;2024-01-07T06:27:56;0.60;;;0.40;;
79124;SDS011;68527;39.470;-0.376;2024-01-07T06:30:22;1.50;;;0.30;;
79124;SDS011;68527;39.470;-0.376;2024-01-07T06:32:47;1.40;;;0.40;;
79124;SDS011;68527;39.470;-0.376;2024-01-07T06:35:14;0.60;;;0.40;;
79124;SDS011;68527;39.470;-0.376;2024-01-07T06:37:40;0.80;;;0.40;;
79124;SDS011;68527;39.470;-0.376;2024-01-07T06:40:06;0.60;;;0.50;;
79124;SDS011;68527;39.470;-0.376;2024-01-07T06:42:32;1.50;;;0.80;;
79124;SDS011;68527;39.470;-0.376;2024-01-07T06:44:59;0.60;;;0.30;;
79124;SDS011;68527;39.470;-0.376;2024-01-07T06:47:25;0.80;;;0.30;;
79124;SDS011;68527;39.470;-0.376;2024-01-07T06:49:51;0.60;;;0.30;;
79124;SDS011;68527;39.470;-0.376;2024-01-07T06:52:16;0.50;;;0.30;;
79124;SDS011;68527;39.470;-0.376;2024-01-07T06:54:43;0.80;;;0.70;;
79124;SDS011;68527;39.470;-0.376;2024-01-07T06:57:09;0.30;;;0.30;;
79124;SDS011;68527;39.470;-0.376;2024-01-07T06:59:34;1.50;;;0.40;;
79124;SDS011;68527;39.470;-0.376;2024-01-07T07:02:00;0.60;;;0.30;;
79124;SDS011;68527;39.470;-0.376;2024-01-07T07:04:27;0.80;;;0.30;;
79124;SDS011;68527;39.470;-0.376;2024-01-07T07:06:53;0.70;;;0.40;;
79124;SDS011;68527;39.470;-0.376;2024-01-07T07:09:18;1.10;;;0.40;;
79124;SDS011;68527;39.470;-0.376;2024-01-07T07:11:44;0.50;;;0.20;;
79124;SDS011;68527;39.470;-0.376;2024-01-07T07:14:12;3.00;;;0.40;;
79124;SDS011;68527;39.470;-0.376;2024-01-07T07:16:37;0.70;;;0.40;;
79124;SDS011;68527;39.470;-0.376;2024-01-07T07:19:03;0.30;;;0.20;;
79124;SDS011;68527;39.470;-0.376;2024-01-07T07:23:55;2.00;;;0.40;;
79124;SDS011;68527;39.470;-0.376;2024-01-07T07:26:22;2.20;;;0.40;;
79124;SDS011;68527;39.470;-0.376;2024-01-07T07:28:48;1.60;;;0.40;;
79124;SDS011;68527;39.470;-0.376;2024-01-07T07:31:13;0.60;;;0.40;;
79124;SDS011;68527;39.470;-0.376;2024-01-07T07:33:40;0.90;;;0.40;;
79124;SDS011;68527;39.470;-0.376;2024-01-07T07:36:06;2.00;;;0.50;;
79124;SDS011;68527;39.470;-0.376;2024-01-07T07:38:32;1.40;;;0.60;;
79124;SDS011;68527;39.470;-0.376;2024-01-07T07:41:01;0.70;;;0.40;;
79124;SDS011;68527;39.470;-0.376;2024-01-07T07:43:28;1.00;;;0.30;;
79124;SDS011;68527;39.470;-0.376;2024-01-07T07:45:54;0.40;;;0.20;;
79124;SDS011;68527;39.470;-0.376;2024-01-07T07:48:21;2.20;;;0.40;;
79124;SDS011;68527;39.470;-0.376;2024-01-07T07:50:49;1.80;;;0.30;;
79124;SDS011;68527;39.470;-0.376;2024-01-07T07:53:15;0.80;;;0.30;;
79124;SDS011;68527;39.470;-0.376;2024-01-07T07:55:40;2.20;;;0.40;;
79124;SDS011;68527;39.470;-0.376;2024-01-07T07:58:06;3.60;;;0.60;;
79124;SDS011;68527;39.470;-0.376;2024-01-07T08:00:34;1.20;;;0.40;;
79124;SDS011;68527;39.470;-0.376;2024-01-07T08:03:00;3.40;;;0.30;;
79124;SDS011;68527;39.470;-0.376;2024-01-07T08:05:26;1.50;;;0.30;;
79124;SDS011;68527;39.470;-0.376;2024-01-07T08:07:51;2.80;;;0.40;;
79124;SDS011;68527;39.470;-0.376;2024-01-07T08:10:18;1.70;;;0.50;;
79124;SDS011;68527;39.470;-0.376;2024-01-07T08:12:44;2.20;;;0.30;;
79124;SDS011;68527;39.470;-0.376;2024-01-07T08:15:09;2.10;;;0.30;;
79124;SDS011;68527;39.470;-0.376;2024-01-07T08:17:36;1.40;;;0.40;;
79124;SDS011;68527;39.470;-0.376;2024-01-07T08:20:04;0.90;;;0.40;;
79124;SDS011;68527;39.470;-0.376;2024-01-07T08:22:30;1.70;;;0.30;;
79124;SDS011;68527;39.470;-0.376;2024-01-07T08:24:56;1.40;;;0.20;;
79124;SDS011;68527;39.470;-0.376;2024-01-07T08:27:21;2.10;;;0.30;;
79124;SDS011;68527;39.470;-0.376;2024-01-07T08:29:48;3.10;;;0.30;;
79124;SDS011;68527;39.470;-0.376;2024-01-07T08:32:14;2.60;;;0.30;;
79124;SDS011;68527;39.470;-0.376;2024-01-07T08:34:40;1.10;;;0.30;;
79124;SDS011;68527;39.470;-0.376;2024-01-07T08:37:06;0.90;;;0.50;;
79124;SDS011;68527;39.470;-0.376;2024-01-07T08:39:33;1.30;;;0.40;;
79124;SDS011;68527;39.470;-0.376;2024-01-07T08:41:59;1.20;;;0.30;;
79124;SDS011;68527;39.470;-0.376;2024-01-07T08:44:25;1.90;;;0.50;;
79124;SDS011;68527;39.470;-0.376;2024-01-07T08:46:50;2.20;;;0.40;;
79124;SDS011;68527;39.470;-0.376;2024-01-07T08:49:18;1.00;;;0.30;;
79124;SDS011;68527;39.470;-0.376;2024-01-07T08:51:43;1.70;;;1.00;;
79124;SDS011;68527;39.470;-0.376;2024-01-07T08:54:09;1.60;;;0.30;;
79124;SDS011;68527;39.470;-0.376;2024-01-07T08:56:34;1.50;;;0.50;;
79124;SDS011;68527;39.470;-0.376;2024-01-07T08:59:00;3.40;;;0.50;;
79124;SDS011;68527;39.470;-0.376;2024-01-07T09:01:27;3.40;;;0.40;;
79124;SDS011;68527;39.470;-0.376;2024-01-07T09:03:52;1.10;;;0.40;;
79124;SDS011;68527;39.470;-0.376;2024-01-07T09:06:18;1.80;;;0.50;;
79124;SDS011;68527;39.470;-0.376;2024-01-07T09:08:44;2.70;;;0.40;;
79124;SDS011;68527;39.470;-0.376;2024-01-07T09:11:12;1.60;;;0.50;;
79124;SDS011;68527;39.470;-0.376;2024-01-07T09:13:38;6.80;;;0.50;;
79124;SDS011;68527;39.470;-0.376;2024-01-07T09:16:04;1.90;;;0.50;;
79124;SDS011;68527;39.470;-0.376;2024-01-07T09:18:30;4.00;;;0.50;;
79124;SDS011;68527;39.470;-0.376;2024-01-07T09:20:57;3.20;;;0.70;;
79124;SDS011;68527;39.470;-0.376;2024-01-07T09:23:22;3.00;;;0.60;;
79124;SDS011;68527;39.470;-0.376;2024-01-07T09:25:49;3.60;;;0.60;;
79124;SDS011;68527;39.470;-0.376;2024-01-07T09:28:14;1.50;;;0.50;;
79124;SDS011;68527;39.470;-0.376;2024-01-07T09:30:41;2.40;;;0.40;;
79124;SDS011;68527;39.470;-0.376;2024-01-07T09:33:07;2.00;;;0.60;;
79124;SDS011;68527;39.470;-0.376;2024-01-07T09:35:33;4.30;;;0.50;;
79124;SDS011;68527;39.470;-0.376;2024-01-07T09:37:58;1.90;;;0.50;;
79124;SDS011;68527;39.470;-0.376;2024-01-07T09:42:51;2.30;;;0.50;;
79124;SDS011;68527;39.470;-0.376;2024-01-07T09:45:16;2.50;;;0.40;;
79124;SDS011;68527;39.470;-0.376;2024-01-07T09:47:44;2.80;;;0.80;;
79124;SDS011;68527;39.470;-0.376;2024-01-07T09:50:12;2.40;;;0.60;;
79124;SDS011;68527;39.470;-0.376;2024-01-07T09:52:39;2.90;;;0.50;;
79124;SDS011;68527;39.470;-0.376;2024-01-07T09:55:12;2.80;;;0.70;;
79124;SDS011;68527;39.470;-0.376;2024-01-07T09:57:40;1.60;;;0.40;;
79124;SDS011;68527;39.470;-0.376;2024-01-07T10:00:09;2.60;;;0.60;;
79124;SDS011;68527;39.470;-0.376;2024-01-07T10:02:35;3.90;;;0.70;;
79124;SDS011;68527;39.470;-0.376;2024-01-07T10:05:01;3.90;;;0.50;;
79124;SDS011;68527;39.470;-0.376;2024-01-07T10:07:30;1.20;;;0.50;;
79124;SDS011;68527;39.470;-0.376;2024-01-07T10:09:55;2.10;;;0.50;;
79124;SDS011;68527;39.470;-0.376;2024-01-07T10:12:24;3.00;;;0.60;;
79124;SDS011;68527;39.470;-0.376;2024-01-07T10:14:52;5.20;;;0.50;;
79124;SDS011;68527;39.470;-0.376;2024-01-07T10:17:17;4.30;;;0.70;;
79124;SDS011;68527;39.470;-0.376;2024-01-07T10:19:44;0.80;;;0.50;;
79124;SDS011;68527;39.470;-0.376;2024-01-07T10:22:13;1.70;;;0.60;;
79124;SDS011;68527;39.470;-0.376;2024-01-07T10:24:41;2.50;;;0.50;;
79124;SDS011;68527;39.470;-0.376;2024-01-07T10:27:08;1.50;;;0.40;;
79124;SDS011;68527;39.470;-0.376;2024-01-07T10:29:35;1.10;;;0.40;;
79124;SDS011;68527;39.470;-0.376;2024-01-07T10:32:01;2.20;;;0.50;;
79124;SDS011;68527;39.470;-0.376;2024-01-07T10:34:29;2.00;;;0.40;;
79124;SDS011;68527;39.470;-0.376;2024-01-07T10:39:26;1.70;;;0.60;;
79124;SDS011;68527;39.470;-0.376;2024-01-07T10:41:52;2.80;;;0.40;;
79124;SDS011;68527;39.470;-0.376;2024-01-07T10:44:26;2.50;;;0.50;;
79124;SDS011;68527;39.470;-0.376;2024-01-07T10:46:56;2.30;;;0.50;;
79124;SDS011;68527;39.470;-0.376;2024-01-07T10:49:24;1.60;;;0.50;;
79124;SDS011;68527;39.470;-0.376;2024-01-07T10:56:59;5.20;;;0.60;;
79124;SDS011;68527;39.470;-0.376;2024-01-07T10:59:41;1.00;;;0.50;;
79124;SDS011;68527;39.470;-0.376;2024-01-07T11:02:07;4.00;;;0.60;;
79124;SDS011;68527;39.470;-0.376;2024-01-07T11:04:43;4.00;;;0.60;;
79124;SDS011;68527;39.470;-0.376;2024-01-07T11:12:44;2.80;;;0.90;;
79124;SDS011;68527;39.470;-0.376;2024-01-07T11:18:21;3.50;;;0.50;;
79124;SDS011;68527;39.470;-0.376;2024-01-07T11:20:48;2.20;;;0.50;;
79124;SDS011;68527;39.470;-0.376;2024-01-07T11:23:28;2.30;;;0.40;;
79124;SDS011;68527;39.470;-0.376;2024-01-07T11:25:57;2.40;;;0.70;;
79124;SDS011;68527;39.470;-0.376;2024-01-07T11:34:06;3.80;;;0.80;;
79124;SDS011;68527;39.470;-0.376;2024-01-07T11:36:34;2.90;;;0.80;;
79124;SDS011;68527;39.470;-0.376;2024-01-07T11:39:00;3.20;;;1.00;;
79124;SDS011;68527;39.470;-0.376;2024-01-07T11:41:29;4.50;;;1.70;;
79124;SDS011;68527;39.470;-0.376;2024-01-07T11:43:57;1.80;;;0.80;;
79124;SDS011;68527;39.470;-0.376;2024-01-07T11:46:28;4.00;;;1.10;;
79124;SDS011;68527;39.470;-0.376;2024-01-07T11:48:56;5.60;;;1.20;;
79124;SDS011;68527;39.470;-0.376;2024-01-07T11:51:30;2.00;;;0.70;;
79124;SDS011;68527;39.470;-0.376;2024-01-07T11:53:57;3.50;;;1.10;;
79124;SDS011;68527;39.470;-0.376;2024-01-07T11:56:25;3.40;;;1.00;;
79124;SDS011;68527;39.470;-0.376;2024-01-07T11:58:51;2.40;;;0.70;;
79124;SDS011;68527;39.470;-0.376;2024-01-07T12:01:18;2.10;;;0.70;;
79124;SDS011;68527;39.470;-0.376;2024-01-07T12:03:44;2.50;;;0.80;;
79124;SDS011;68527;39.470;-0.376;2024-01-07T12:06:11;3.40;;;0.80;;
79124;SDS011;68527;39.470;-0.376;2024-01-07T12:08:41;3.80;;;0.70;;
79124;SDS011;68527;39.470;-0.376;2024-01-07T12:11:15;2.70;;;0.60;;
79124;SDS011;68527;39.470;-0.376;2024-01-07T12:13:41;6.20;;;1.10;;
79124;SDS011;68527;39.470;-0.376;2024-01-07T12:16:09;2.60;;;0.90;;
79124;SDS011;68527;39.470;-0.376;2024-01-07T12:18:36;2.20;;;0.50;;
79124;SDS011;68527;39.470;-0.376;2024-01-07T12:21:03;2.80;;;0.80;;
79124;SDS011;68527;39.470;-0.376;2024-01-07T12:23:34;2.70;;;0.80;;
79124;SDS011;68527;39.470;-0.376;2024-01-07T12:26:08;2.60;;;0.70;;
79124;SDS011;68527;39.470;-0.376;2024-01-07T12:28:38;3.70;;;0.90;;
79124;SDS011;68527;39.470;-0.376;2024-01-07T12:31:04;5.00;;;0.80;;
79124;SDS011;68527;39.470;-0.376;2024-01-07T12:33:30;2.80;;;0.70;;
79124;SDS011;68527;39.470;-0.376;2024-01-07T12:35:57;2.20;;;0.60;;
79124;SDS011;68527;39.470;-0.376;2024-01-07T12:38:24;2.20;;;0.60;;
79124;SDS011;68527;39.470;-0.376;2024-01-07T12:40:50;7.80;;;0.80;;
79124;SDS011;68527;39.470;-0.376;2024-01-07T12:43:17;0.90;;;0.40;;
79124;SDS011;68527;39.470;-0.376;2024-01-07T12:45:42;2.00;;;0.60;;
79124;SDS011;68527;39.470;-0.376;2024-01-07T12:48:09;5.00;;;0.50;;
79124;SDS011;68527;39.470;-0.376;2024-01-07T12:50:36;5.10;;;0.60;;
79124;SDS011;68527;39.470;-0.376;2024-01-07T12:53:01;3.40;;;1.00;;
79124;SDS011;68527;39.470;-0.376;2024-01-07T12:55:27;4.80;;;0.80;;
79124;SDS011;68527;39.470;-0.376;2024-01-07T13:00:20;3.60;;;0.60;;
79124;SDS011;68527;39.470;-0.376;2024-01-07T13:02:46;1.20;;;0.50;;
79124;SDS011;68527;39.470;-0.376;2024-01-07T13:05:12;2.00;;;0.60;;
79124;SDS011;68527;39.470;-0.376;2024-01-07T13:10:04;2.00;;;0.50;;
79124;SDS011;68527;39.470;-0.376;2024-01-07T13:12:31;3.10;;;1.00;;
79124;SDS011;68527;39.470;-0.376;2024-01-07T13:14:56;4.80;;;0.70;;
79124;SDS011;68527;39.470;-0.376;2024-01-07T13:17:23;6.50;;;0.70;;
79124;SDS011;68527;39.470;-0.376;2024-01-07T13:19:49;3.80;;;0.80;;
79124;SDS011;68527;39.470;-0.376;2024-01-07T13:22:14;5.40;;;0.70;;
79124;SDS011;68527;39.470;-0.376;2024-01-07T13:24:40;1.20;;;0.50;;
79124;SDS011;68527;39.470;-0.376;2024-01-07T13:27:08;2.20;;;0.70;;
79124;SDS011;68527;39.470;-0.376;2024-01-07T13:29:34;1.80;;;0.80;;
79124;SDS011;68527;39.470;-0.376;2024-01-07T13:32:00;4.10;;;1.10;;
79124;SDS011;68527;39.470;-0.376;2024-01-07T13:36:52;4.00;;;0.90;;
79124;SDS011;68527;39.470;-0.376;2024-01-07T13:39:18;3.40;;;0.90;;
79124;SDS011;68527;39.470;-0.376;2024-01-07T13:41:46;2.20;;;0.50;;
79124;SDS011;68527;39.470;-0.376;2024-01-07T13:44:14;3.00;;;0.80;;
79124;SDS011;68527;39.470;-0.376;2024-01-07T13:46:45;2.70;;;0.60;;
79124;SDS011;68527;39.470;-0.376;2024-01-07T13:49:18;1.20;;;0.60;;
79124;SDS011;68527;39.470;-0.376;2024-01-07T13:51:44;2.70;;;0.80;;
79124;SDS011;68527;39.470;-0.376;2024-01-07T13:54:09;3.70;;;0.70;;
79124;SDS011;68527;39.470;-0.376;2024-01-07T13:56:40;1.60;;;0.70;;
79124;SDS011;68527;39.470;-0.376;2024-01-07T13:59:10;1.50;;;0.70;;
79124;SDS011;68527;39.470;-0.376;2024-01-07T14:01:38;2.50;;;0.80;;
79124;SDS011;68527;39.470;-0.376;2024-01-07T14:06:33;2.70;;;1.00;;
79124;SDS011;68527;39.470;-0.376;2024-01-07T14:09:01;2.00;;;0.90;;
79124;SDS011;68527;39.470;-0.376;2024-01-07T14:11:28;2.10;;;0.80;;
79124;SDS011;68527;39.470;-0.376;2024-01-07T14:13:54;3.70;;;1.00;;
79124;SDS011;68527;39.470;-0.376;2024-01-07T14:16:21;2.50;;;1.00;;
79124;SDS011;68527;39.470;-0.376;2024-01-07T14:18:49;2.10;;;1.10;;
79124;SDS011;68527;39.470;-0.376;2024-01-07T14:21:14;2.90;;;1.00;;
79124;SDS011;68527;39.470;-0.376;2024-01-07T14:23:42;3.10;;;1.00;;
79124;SDS011;68527;39.470;-0.376;2024-01-07T14:26:08;2.00;;;0.90;;
79124;SDS011;68527;39.470;-0.376;2024-01-07T14:28:34;2.10;;;0.90;;
79124;SDS011;68527;39.470;-0.376;2024-01-07T14:31:03;1.90;;;1.00;;
79124;SDS011;68527;39.470;-0.376;2024-01-07T14:33:29;3.00;;;1.00;;
79124;SDS011;68527;39.470;-0.376;2024-01-07T14:35:54;3.90;;;1.10;;
79124;SDS011;68527;39.470;-0.376;2024-01-07T14:38:20;2.40;;;0.90;;
79124;SDS011;68527;39.470;-0.376;2024-01-07T14:40:47;1.80;;;0.70;;
79124;SDS011;68527;39.470;-0.376;2024-01-07T14:43:13;2.30;;;1.00;;
79124;SDS011;68527;39.470;-0.376;2024-01-07T14:45:39;2.50;;;0.70;;
79124;SDS011;68527;39.470;-0.376;2024-01-07T14:48:05;3.10;;;1.10;;
79124;SDS011;68527;39.470;-0.376;2024-01-07T14:50:32;4.20;;;1.10;;
79124;SDS011;68527;39.470;-0.376;2024-01-07T14:52:57;2.40;;;1.10;;
79124;SDS011;68527;39.470;-0.376;2024-01-07T14:55:23;2.50;;;1.10;;
79124;SDS011;68527;39.470;-0.376;2024-01-07T15:00:16;2.70;;;1.00;;
79124;SDS011;68527;39.470;-0.376;2024-01-07T15:02:42;1.70;;;0.80;;
79124;SDS011;68527;39.470;-0.376;2024-01-07T15:05:08;2.50;;;0.90;;
79124;SDS011;68527;39.470;-0.376;2024-01-07T15:07:34;3.80;;;0.90;;
79124;SDS011;68527;39.470;-0.376;2024-01-07T15:10:01;2.10;;;0.90;;
79124;SDS011;68527;39.470;-0.376;2024-01-07T15:12:26;3.20;;;0.90;;
79124;SDS011;68527;39.470;-0.376;2024-01-07T15:15:02;2.70;;;0.80;;
79124;SDS011;68527;39.470;-0.376;2024-01-07T15:17:30;2.50;;;0.90;;
79124;SDS011;68527;39.470;-0.376;2024-01-07T15:19:56;3.10;;;1.00;;
79124;SDS011;68527;39.470;-0.376;2024-01-07T15:22:23;2.50;;;0.90;;